createdAt,value
2023-01-19T00:00:36.000Z,16000.0
2023-01-19T00:01:37.000Z,16000.0
2023-01-19T00:02:36.000Z,16000.0
2023-01-19T00:03:36.000Z,16000.0
2023-01-19T00:04:36.000Z,16000.0
2023-01-19T00:05:36.000Z,16000.0
2023-01-19T00:06:37.000Z,16000.0
2023-01-19T00:07:36.000Z,16000.0
2023-01-19T00:08:36.000Z,16000.0
2023-01-19T00:09:37.000Z,16000.0
2023-01-19T00:10:36.000Z,16000.0
2023-01-19T00:11:37.000Z,16000.0
2023-01-19T00:12:36.000Z,16000.0
2023-01-19T00:13:36.000Z,16000.0
2023-01-19T00:14:37.000Z,16000.0
2023-01-19T00:15:36.000Z,16000.0
2023-01-19T00:16:36.000Z,16000.0
2023-01-19T00:17:36.000Z,16000.0
2023-01-19T00:18:36.000Z,16000.0
2023-01-19T00:19:37.000Z,16000.0
2023-01-19T00:20:36.000Z,16000.0
2023-01-19T00:21:36.000Z,16000.0
2023-01-19T00:22:37.000Z,16000.0
2023-01-19T00:23:36.000Z,16000.0
2023-01-19T00:24:37.000Z,16000.0
2023-01-19T00:25:36.000Z,16000.0
2023-01-19T00:26:36.000Z,16000.0
2023-01-19T00:27:37.000Z,16000.0
2023-01-19T00:28:36.000Z,16000.0
2023-01-19T00:29:36.000Z,16000.0
2023-01-19T00:30:37.000Z,16000.0
2023-01-19T00:31:36.000Z,16000.0
2023-01-19T00:32:37.000Z,16000.0
2023-01-19T00:33:36.000Z,16000.0
2023-01-19T00:34:36.000Z,16000.0
2023-01-19T00:35:37.000Z,16000.0
2023-01-19T00:36:36.000Z,16000.0
2023-01-19T00:37:37.000Z,16000.0
2023-01-19T00:38:36.000Z,16000.0
2023-01-19T00:39:36.000Z,16000.0
2023-01-19T00:40:37.000Z,16000.0
2023-01-19T00:41:36.000Z,16000.0
2023-01-19T00:42:36.000Z,16000.0
2023-01-19T00:43:36.000Z,16000.0
2023-01-19T00:44:36.000Z,16000.0
2023-01-19T00:45:37.000Z,16000.0
2023-01-19T00:46:37.000Z,16000.0
2023-01-19T00:47:36.000Z,16000.0
2023-01-19T00:48:37.000Z,16000.0
2023-01-19T00:49:36.000Z,16000.0
2023-01-19T00:50:36.000Z,16000.0
2023-01-19T00:51:37.000Z,16000.0
2023-01-19T00:52:36.000Z,16000.0
2023-01-19T00:53:36.000Z,16000.0
2023-01-19T00:54:37.000Z,16000.0
2023-01-19T00:55:36.000Z,16000.0
2023-01-19T00:56:37.000Z,16000.0
2023-01-19T00:57:36.000Z,16000.0
2023-01-19T00:58:36.000Z,16000.0
2023-01-19T00:59:37.000Z,16000.0
2023-01-19T01:00:36.000Z,16000.0
2023-01-19T01:01:36.000Z,16000.0
2023-01-19T01:02:36.000Z,16000.0
2023-01-19T01:03:36.000Z,16000.0
2023-01-19T01:04:37.000Z,16000.0
2023-01-19T01:05:36.000Z,16000.0
2023-01-19T01:06:36.000Z,16000.0
2023-01-19T01:07:37.000Z,16000.0
2023-01-19T01:08:36.000Z,16000.0
2023-01-19T01:09:37.000Z,16000.0
2023-01-19T01:10:36.000Z,16000.0
2023-01-19T01:11:36.000Z,16000.0
2023-01-19T01:12:37.000Z,16000.0
2023-01-19T01:13:36.000Z,16000.0
2023-01-19T01:14:36.000Z,16000.0
2023-01-19T01:15:37.000Z,16000.0
2023-01-19T01:16:36.000Z,16000.0
2023-01-19T01:17:37.000Z,16000.0
2023-01-19T01:18:36.000Z,16000.0
2023-01-19T01:19:36.000Z,16000.0
2023-01-19T01:20:37.000Z,16000.0
2023-01-19T01:21:36.000Z,16000.0
2023-01-19T01:22:37.000Z,16000.0
2023-01-19T01:23:36.000Z,16000.0
2023-01-19T01:24:36.000Z,16000.0
2023-01-19T01:25:37.000Z,16000.0
2023-01-19T01:26:36.000Z,16000.0
2023-01-19T01:27:36.000Z,16000.0
2023-01-19T01:28:36.000Z,16000.0
2023-01-19T01:29:36.000Z,16000.0
2023-01-19T01:30:37.000Z,16000.0
2023-01-19T01:31:36.000Z,16000.0
2023-01-19T01:32:36.000Z,16000.0
2023-01-19T01:33:37.000Z,16000.0
2023-01-19T01:34:36.000Z,16000.0
2023-01-19T01:35:36.000Z,16000.0
2023-01-19T01:36:36.000Z,16000.0
2023-01-19T01:37:36.000Z,16000.0
2023-01-19T01:38:37.000Z,16000.0
2023-01-19T01:39:36.000Z,16000.0
2023-01-19T01:40:36.000Z,16000.0
2023-01-19T01:41:37.000Z,16000.0
2023-01-19T01:42:36.000Z,16000.0
2023-01-19T01:43:37.000Z,16000.0
2023-01-19T01:44:36.000Z,16000.0
2023-01-19T01:45:36.000Z,16000.0
2023-01-19T01:46:37.000Z,16000.0
2023-01-19T01:47:36.000Z,16000.0
2023-01-19T01:48:36.000Z,16000.0
2023-01-19T01:49:37.000Z,16000.0
2023-01-19T01:50:36.000Z,16000.0
2023-01-19T01:51:36.000Z,16000.0
2023-01-19T01:52:37.000Z,16000.0
2023-01-19T01:53:36.000Z,16000.0
2023-01-19T01:54:37.000Z,16000.0
2023-01-19T01:55:36.000Z,16000.0
2023-01-19T01:56:36.000Z,16000.0
2023-01-19T01:57:37.000Z,16000.0
2023-01-19T01:58:36.000Z,16000.0
2023-01-19T01:59:36.000Z,16000.0
2023-01-19T02:00:36.000Z,16000.0
2023-01-19T02:01:36.000Z,16000.0
2023-01-19T02:02:37.000Z,16000.0
2023-01-19T02:03:36.000Z,16000.0
2023-01-19T02:04:36.000Z,16000.0
2023-01-19T02:05:37.000Z,16000.0
2023-01-19T02:06:36.000Z,16000.0
2023-01-19T02:07:37.000Z,16000.0
2023-01-19T02:08:36.000Z,16000.0
2023-01-19T02:09:36.000Z,16000.0
2023-01-19T02:10:37.000Z,16000.0
2023-01-19T02:11:36.000Z,16000.0
2023-01-19T02:12:36.000Z,16000.0
2023-01-19T02:13:36.000Z,16000.0
2023-01-19T02:14:36.000Z,16000.0
2023-01-19T02:15:37.000Z,16000.0
2023-01-19T02:16:36.000Z,16000.0
2023-01-19T02:17:36.000Z,16000.0
2023-01-19T02:18:37.000Z,16000.0
2023-01-19T02:19:36.000Z,16000.0
2023-01-19T02:20:37.000Z,16000.0
2023-01-19T02:21:36.000Z,16000.0
2023-01-19T02:22:36.000Z,16000.0
2023-01-19T02:23:37.000Z,16000.0
2023-01-19T02:24:36.000Z,16000.0
2023-01-19T02:25:36.000Z,16000.0
2023-01-19T02:26:37.000Z,15595.0
2023-01-19T02:27:36.000Z,16000.0
2023-01-19T02:28:37.000Z,16000.0
2023-01-19T02:29:36.000Z,16000.0
2023-01-19T02:30:36.000Z,16000.0
2023-01-19T02:31:37.000Z,16000.0
2023-01-19T02:32:36.000Z,16000.0
2023-01-19T02:33:37.000Z,16000.0
2023-01-19T02:34:36.000Z,16000.0
2023-01-19T02:35:36.000Z,16000.0
2023-01-19T02:36:37.000Z,16000.0
2023-01-19T02:37:36.000Z,16000.0
2023-01-19T02:38:36.000Z,16000.0
2023-01-19T02:39:37.000Z,16000.0
2023-01-19T02:40:36.000Z,16000.0
2023-01-19T02:41:37.000Z,16000.0
2023-01-19T02:42:36.000Z,16000.0
2023-01-19T02:43:36.000Z,15818.0
2023-01-19T02:44:37.000Z,15213.0
2023-01-19T02:45:36.000Z,16000.0
2023-01-19T02:46:36.000Z,16000.0
2023-01-19T02:47:37.000Z,15053.0
2023-01-19T02:48:36.000Z,14721.0
2023-01-19T02:49:36.000Z,14435.0
2023-01-19T02:50:37.000Z,13759.0
2023-01-19T02:51:36.000Z,13146.0
2023-01-19T02:52:37.000Z,13924.0
2023-01-19T02:53:36.000Z,13055.0
2023-01-19T02:54:36.000Z,12160.0
2023-01-19T02:55:37.000Z,12175.0
2023-01-19T02:56:36.000Z,12276.0
2023-01-19T02:57:36.000Z,11139.0
2023-01-19T02:58:36.000Z,11117.0
2023-01-19T02:59:36.000Z,11453.0
2023-01-19T03:00:37.000Z,10734.0
2023-01-19T03:01:36.000Z,9984.0
2023-01-19T03:02:36.000Z,9605.0
2023-01-19T03:03:37.000Z,10224.0
2023-01-19T03:04:36.000Z,10804.0
2023-01-19T03:05:37.000Z,11074.0
2023-01-19T03:06:36.000Z,10449.0
2023-01-19T03:07:36.000Z,10908.0
2023-01-19T03:08:37.000Z,10338.0
2023-01-19T03:09:36.000Z,11157.0
2023-01-19T03:10:37.000Z,10296.0
2023-01-19T03:11:36.000Z,10685.0
2023-01-19T03:12:36.000Z,10231.0
2023-01-19T03:13:37.000Z,9946.0
2023-01-19T03:14:36.000Z,9822.0
2023-01-19T03:15:36.000Z,10438.0
2023-01-19T03:16:37.000Z,10022.0
2023-01-19T03:17:36.000Z,9444.0
2023-01-19T03:18:37.000Z,9164.0
2023-01-19T03:19:36.000Z,9231.0
2023-01-19T03:20:36.000Z,8670.0
2023-01-19T03:21:37.000Z,8398.0
2023-01-19T03:22:36.000Z,8032.0
2023-01-19T03:23:36.000Z,8095.0
2023-01-19T03:24:36.000Z,8054.0
2023-01-19T03:25:36.000Z,8317.0
2023-01-19T03:26:37.000Z,8588.0
2023-01-19T03:27:36.000Z,8750.0
2023-01-19T03:28:36.000Z,8971.0
2023-01-19T03:29:37.000Z,9212.0
2023-01-19T03:30:36.000Z,9392.0
2023-01-19T03:31:37.000Z,8754.0
2023-01-19T03:32:36.000Z,8835.0
2023-01-19T03:33:36.000Z,9036.0
2023-01-19T03:34:37.000Z,9029.0
2023-01-19T03:35:36.000Z,9631.0
2023-01-19T03:36:36.000Z,9972.0
2023-01-19T03:37:36.000Z,9231.0
2023-01-19T03:38:36.000Z,9154.0
2023-01-19T03:39:37.000Z,9043.0
2023-01-19T03:40:36.000Z,9340.0
2023-01-19T03:41:36.000Z,9156.0
2023-01-19T03:42:37.000Z,8990.0
2023-01-19T03:43:36.000Z,8977.0
2023-01-19T03:44:37.000Z,8598.0
2023-01-19T03:45:36.000Z,8528.0
2023-01-19T03:46:36.000Z,8628.0
2023-01-19T03:47:37.000Z,8555.0
2023-01-19T03:48:36.000Z,8394.0
2023-01-19T03:49:36.000Z,8544.0
2023-01-19T03:50:37.000Z,7991.0
2023-01-19T03:51:36.000Z,7634.0
2023-01-19T03:52:36.000Z,7685.0
2023-01-19T03:53:37.000Z,7605.0
2023-01-19T03:54:36.000Z,7385.0
2023-01-19T03:55:37.000Z,7461.0
2023-01-19T03:56:36.000Z,7101.0
2023-01-19T03:57:36.000Z,6922.0
2023-01-19T03:58:37.000Z,6896.0
2023-01-19T03:59:36.000Z,6630.0
2023-01-19T04:00:36.000Z,6492.0
2023-01-19T04:01:37.000Z,6668.0
2023-01-19T04:02:36.000Z,6269.0
2023-01-19T04:03:37.000Z,6546.0
2023-01-19T04:04:36.000Z,7123.0
2023-01-19T04:05:36.000Z,7081.0
2023-01-19T04:06:37.000Z,7147.0
2023-01-19T04:07:36.000Z,7090.0
2023-01-19T04:08:37.000Z,7316.0
2023-01-19T04:09:36.000Z,7874.0
2023-01-19T04:10:36.000Z,7837.0
2023-01-19T04:11:37.000Z,8210.0
2023-01-19T04:12:36.000Z,8513.0
2023-01-19T04:13:36.000Z,8954.0
2023-01-19T04:14:36.000Z,8622.0
2023-01-19T04:15:36.000Z,8481.0
2023-01-19T04:16:37.000Z,7992.0
2023-01-19T04:17:36.000Z,7833.0
2023-01-19T04:18:36.000Z,8094.0
2023-01-19T04:19:37.000Z,8130.0
2023-01-19T04:20:36.000Z,7858.0
2023-01-19T04:21:37.000Z,7914.0
2023-01-19T04:22:36.000Z,8152.0
2023-01-19T04:23:36.000Z,9089.0
2023-01-19T04:24:37.000Z,9878.0
2023-01-19T04:25:36.000Z,9987.0
2023-01-19T04:26:36.000Z,10095.0
2023-01-19T04:27:37.000Z,9907.0
2023-01-19T04:28:36.000Z,9788.0
2023-01-19T04:29:37.000Z,10326.0
2023-01-19T04:30:36.000Z,9902.0
2023-01-19T04:31:36.000Z,9834.0
2023-01-19T04:32:37.000Z,10421.0
2023-01-19T04:33:36.000Z,10754.0
2023-01-19T04:34:37.000Z,10956.0
2023-01-19T04:35:36.000Z,10901.0
2023-01-19T04:36:36.000Z,10319.0
2023-01-19T04:37:37.000Z,10893.0
2023-01-19T04:38:36.000Z,11189.0
2023-01-19T04:39:36.000Z,11186.0
2023-01-19T04:40:37.000Z,10945.0
2023-01-19T04:41:36.000Z,9977.0
2023-01-19T04:42:37.000Z,10122.0
2023-01-19T04:43:36.000Z,10489.0
2023-01-19T04:44:36.000Z,10385.0
2023-01-19T04:45:37.000Z,10541.0
2023-01-19T04:46:36.000Z,9819.0
2023-01-19T04:47:36.000Z,9792.0
2023-01-19T04:48:37.000Z,9221.0
2023-01-19T04:49:36.000Z,9515.0
2023-01-19T04:50:36.000Z,9822.0
2023-01-19T04:51:37.000Z,9585.0
2023-01-19T04:52:36.000Z,9430.0
2023-01-19T04:53:37.000Z,9536.0
2023-01-19T04:54:36.000Z,9907.0
2023-01-19T04:55:36.000Z,9633.0
2023-01-19T04:56:37.000Z,9998.0
2023-01-19T04:57:36.000Z,10680.0
2023-01-19T04:58:36.000Z,11117.0
2023-01-19T04:59:36.000Z,10809.0
2023-01-19T05:00:36.000Z,10282.0
2023-01-19T05:01:37.000Z,10384.0
2023-01-19T05:02:36.000Z,10534.0
2023-01-19T05:03:36.000Z,10790.0
2023-01-19T05:04:37.000Z,10678.0
2023-01-19T05:05:36.000Z,10983.0
2023-01-19T05:06:37.000Z,11170.0
2023-01-19T05:07:36.000Z,10390.0
2023-01-19T05:08:36.000Z,10658.0
2023-01-19T05:09:37.000Z,10874.0
2023-01-19T05:10:36.000Z,11911.0
2023-01-19T05:11:37.000Z,12434.0
2023-01-19T05:12:36.000Z,12592.0
2023-01-19T05:13:36.000Z,14017.0
2023-01-19T05:14:37.000Z,13508.0
2023-01-19T05:15:36.000Z,12250.0
2023-01-19T05:16:36.000Z,13113.0
2023-01-19T05:17:37.000Z,13928.0
2023-01-19T05:18:36.000Z,12962.0
2023-01-19T05:19:37.000Z,13758.0
2023-01-19T05:20:36.000Z,13654.0
2023-01-19T05:21:36.000Z,13875.0
2023-01-19T05:22:37.000Z,12871.0
2023-01-19T05:23:36.000Z,12464.0
2023-01-19T05:24:36.000Z,12408.0
2023-01-19T05:25:36.000Z,12923.0
2023-01-19T05:26:36.000Z,13047.0
2023-01-19T05:27:37.000Z,12335.0
2023-01-19T05:28:36.000Z,12877.0
2023-01-19T05:29:36.000Z,12868.0
2023-01-19T05:30:37.000Z,13245.0
2023-01-19T05:31:36.000Z,13975.0
2023-01-19T05:32:37.000Z,14597.0
2023-01-19T05:33:36.000Z,13951.0
2023-01-19T05:34:36.000Z,13409.0
2023-01-19T05:35:37.000Z,14174.0
2023-01-19T05:36:36.000Z,13282.0
2023-01-19T05:37:36.000Z,11864.0
2023-01-19T05:38:36.000Z,11321.0
2023-01-19T05:39:36.000Z,11517.0
2023-01-19T05:40:37.000Z,11181.0
2023-01-19T05:41:36.000Z,11428.0
2023-01-19T05:42:36.000Z,11380.0
2023-01-19T05:43:37.000Z,11348.0
2023-01-19T05:44:36.000Z,11591.0
2023-01-19T05:45:37.000Z,10801.0
2023-01-19T05:46:37.000Z,11109.0
2023-01-19T05:47:36.000Z,11844.0
2023-01-19T05:48:36.000Z,13409.0
2023-01-19T05:49:36.000Z,13093.0
2023-01-19T05:50:36.000Z,14119.0
2023-01-19T05:51:37.000Z,14296.0
2023-01-19T05:52:36.000Z,16000.0
2023-01-19T05:53:36.000Z,16000.0
2023-01-19T05:54:37.000Z,16000.0
2023-01-19T05:55:36.000Z,16000.0
2023-01-19T05:56:37.000Z,16000.0
2023-01-19T05:57:36.000Z,15743.0
2023-01-19T05:58:36.000Z,14804.0
2023-01-19T05:59:37.000Z,13154.0
2023-01-19T06:00:36.000Z,13029.0
2023-01-19T06:01:36.000Z,12613.0
2023-01-19T06:02:37.000Z,12318.0
2023-01-19T06:03:36.000Z,12566.0
2023-01-19T06:04:37.000Z,12751.0
2023-01-19T06:05:36.000Z,12739.0
2023-01-19T06:06:36.000Z,13343.0
2023-01-19T06:07:37.000Z,13626.0
2023-01-19T06:08:36.000Z,15069.0
2023-01-19T06:09:36.000Z,15216.0
2023-01-19T06:10:36.000Z,15607.0
2023-01-19T06:11:36.000Z,14133.0
2023-01-19T06:12:37.000Z,15220.0
2023-01-19T06:13:36.000Z,15877.0
2023-01-19T06:14:36.000Z,16000.0
2023-01-19T06:15:37.000Z,16000.0
2023-01-19T06:16:36.000Z,16000.0
2023-01-19T06:17:37.000Z,16000.0
2023-01-19T06:18:36.000Z,16000.0
2023-01-19T06:19:36.000Z,16000.0
2023-01-19T06:20:37.000Z,16000.0
2023-01-19T06:21:36.000Z,16000.0
2023-01-19T06:22:37.000Z,16000.0
2023-01-19T06:23:36.000Z,16000.0
2023-01-19T06:24:36.000Z,16000.0
2023-01-19T06:25:37.000Z,16000.0
2023-01-19T06:26:36.000Z,16000.0
2023-01-19T06:27:36.000Z,16000.0
2023-01-19T06:28:37.000Z,16000.0
2023-01-19T06:29:36.000Z,16000.0
2023-01-19T06:30:37.000Z,16000.0
2023-01-19T06:31:36.000Z,16000.0
2023-01-19T06:32:36.000Z,16000.0
2023-01-19T06:33:37.000Z,16000.0
2023-01-19T06:34:36.000Z,16000.0
2023-01-19T06:35:36.000Z,15126.0
2023-01-19T06:36:37.000Z,14531.0
2023-01-19T06:37:36.000Z,16000.0
2023-01-19T06:38:37.000Z,16000.0
2023-01-19T06:39:36.000Z,16000.0
2023-01-19T06:40:36.000Z,15798.0
2023-01-19T06:41:37.000Z,14529.0
2023-01-19T06:42:36.000Z,15008.0
2023-01-19T06:43:37.000Z,14675.0
2023-01-19T06:44:36.000Z,14738.0
2023-01-19T06:45:36.000Z,14154.0
2023-01-19T06:46:37.000Z,13153.0
2023-01-19T06:47:36.000Z,13149.0
2023-01-19T06:48:36.000Z,14426.0
2023-01-19T06:49:37.000Z,13596.0
2023-01-19T06:50:36.000Z,13513.0
2023-01-19T06:51:37.000Z,13474.0
2023-01-19T06:52:36.000Z,14530.0
2023-01-19T06:53:36.000Z,15788.0
2023-01-19T06:54:37.000Z,16000.0
2023-01-19T06:55:36.000Z,16000.0
2023-01-19T06:56:36.000Z,16000.0
2023-01-19T06:57:37.000Z,13795.0
2023-01-19T06:58:36.000Z,12534.0
2023-01-19T06:59:37.000Z,13683.0
2023-01-19T07:00:36.000Z,13934.0
2023-01-19T07:01:36.000Z,13657.0
2023-01-19T07:02:37.000Z,13932.0
2023-01-19T07:03:36.000Z,12562.0
2023-01-19T07:04:37.000Z,12058.0
2023-01-19T07:05:36.000Z,13627.0
2023-01-19T07:06:36.000Z,13017.0
2023-01-19T07:07:37.000Z,13120.0
2023-01-19T07:08:36.000Z,14092.0
2023-01-19T07:09:36.000Z,13226.0
2023-01-19T07:10:36.000Z,13935.0
2023-01-19T07:11:36.000Z,13464.0
2023-01-19T07:12:37.000Z,12066.0
2023-01-19T07:13:36.000Z,12338.0
2023-01-19T07:14:36.000Z,11954.0
2023-01-19T07:15:37.000Z,12849.0
2023-01-19T07:16:36.000Z,12815.0
2023-01-19T07:17:37.000Z,13610.0
2023-01-19T07:18:36.000Z,13649.0
2023-01-19T07:19:36.000Z,13038.0
2023-01-19T07:20:37.000Z,14106.0
2023-01-19T07:21:36.000Z,13820.0
2023-01-19T07:22:36.000Z,13423.0
2023-01-19T07:23:37.000Z,13154.0
2023-01-19T07:24:36.000Z,12633.0
2023-01-19T07:25:37.000Z,11594.0
2023-01-19T07:26:36.000Z,11898.0
2023-01-19T07:27:36.000Z,11525.0
2023-01-19T07:28:37.000Z,12217.0
2023-01-19T07:29:36.000Z,12525.0
2023-01-19T07:30:37.000Z,14148.0
2023-01-19T07:31:36.000Z,13628.0
2023-01-19T07:32:36.000Z,13410.0
2023-01-19T07:33:37.000Z,12929.0
2023-01-19T07:34:36.000Z,12193.0
2023-01-19T07:35:36.000Z,11587.0
2023-01-19T07:36:37.000Z,11717.0
2023-01-19T07:37:36.000Z,11845.0
2023-01-19T07:38:37.000Z,11706.0
2023-01-19T07:39:36.000Z,12085.0
2023-01-19T07:40:36.000Z,10564.0
2023-01-19T07:41:37.000Z,10482.0
2023-01-19T07:42:36.000Z,10217.0
2023-01-19T07:43:37.000Z,10378.0
2023-01-19T07:44:36.000Z,10389.0
2023-01-19T07:45:36.000Z,10462.0
2023-01-19T07:46:37.000Z,9944.0
2023-01-19T07:47:36.000Z,9738.0
2023-01-19T07:48:36.000Z,9599.0
2023-01-19T07:49:37.000Z,8789.0
2023-01-19T07:50:36.000Z,8531.0
2023-01-19T07:51:36.000Z,7908.0
2023-01-19T07:52:37.000Z,7479.0
2023-01-19T07:53:36.000Z,7508.0
2023-01-19T07:54:37.000Z,7585.0
2023-01-19T07:55:36.000Z,7723.0
2023-01-19T07:56:36.000Z,7689.0
2023-01-19T07:57:37.000Z,7528.0
2023-01-19T07:58:36.000Z,7553.0
2023-01-19T07:59:36.000Z,6841.0
2023-01-19T08:00:37.000Z,6672.0
2023-01-19T08:01:36.000Z,6876.0
2023-01-19T08:02:37.000Z,6841.0
2023-01-19T08:03:36.000Z,7106.0
2023-01-19T08:04:36.000Z,7038.0
2023-01-19T08:05:37.000Z,7041.0
2023-01-19T08:06:36.000Z,7376.0
2023-01-19T08:07:37.000Z,7329.0
2023-01-19T08:08:36.000Z,7613.0
2023-01-19T08:09:36.000Z,7785.0
2023-01-19T08:10:37.000Z,7972.0
2023-01-19T08:11:36.000Z,8719.0
2023-01-19T08:12:36.000Z,8171.0
2023-01-19T08:13:37.000Z,7447.0
2023-01-19T08:14:36.000Z,7571.0
2023-01-19T08:15:37.000Z,7715.0
2023-01-19T08:16:36.000Z,8260.0
2023-01-19T08:17:36.000Z,8482.0
2023-01-19T08:18:37.000Z,9185.0
2023-01-19T08:19:36.000Z,8459.0
2023-01-19T08:20:36.000Z,8554.0
2023-01-19T08:21:36.000Z,9203.0
2023-01-19T08:22:36.000Z,9062.0
2023-01-19T08:23:37.000Z,9311.0
2023-01-19T08:24:36.000Z,9471.0
2023-01-19T08:25:36.000Z,10072.0
2023-01-19T08:26:37.000Z,10399.0
2023-01-19T08:27:36.000Z,10019.0
2023-01-19T08:28:37.000Z,9492.0
2023-01-19T08:29:36.000Z,9935.0
2023-01-19T08:30:36.000Z,8806.0
2023-01-19T08:31:37.000Z,8188.0
2023-01-19T08:32:36.000Z,8102.0
2023-01-19T08:33:37.000Z,8153.0
2023-01-19T08:34:36.000Z,8200.0
2023-01-19T08:35:36.000Z,7857.0
2023-01-19T08:36:37.000Z,7995.0
2023-01-19T08:37:36.000Z,8448.0
2023-01-19T08:38:36.000Z,8830.0
2023-01-19T08:39:37.000Z,9730.0
2023-01-19T08:40:36.000Z,10065.0
2023-01-19T08:41:37.000Z,9999.0
2023-01-19T08:42:36.000Z,10242.0
2023-01-19T08:43:36.000Z,10741.0
2023-01-19T08:44:37.000Z,11981.0
2023-01-19T08:45:36.000Z,12395.0
2023-01-19T08:46:36.000Z,13206.0
2023-01-19T08:47:37.000Z,12142.0
2023-01-19T08:48:36.000Z,12104.0
2023-01-19T08:49:36.000Z,11215.0
2023-01-19T08:50:37.000Z,11349.0
2023-01-19T08:51:36.000Z,10676.0
2023-01-19T08:52:37.000Z,11555.0
2023-01-19T08:53:36.000Z,12778.0
2023-01-19T08:54:36.000Z,12867.0
2023-01-19T08:55:37.000Z,14525.0
2023-01-19T08:56:36.000Z,15848.0
2023-01-19T08:57:36.000Z,14441.0
2023-01-19T08:58:37.000Z,14488.0
2023-01-19T08:59:36.000Z,13870.0
2023-01-19T09:00:37.000Z,13397.0
2023-01-19T09:01:36.000Z,13423.0
2023-01-19T09:02:36.000Z,14636.0
2023-01-19T09:03:37.000Z,15644.0
2023-01-19T09:04:36.000Z,16000.0
2023-01-19T09:05:37.000Z,16000.0
2023-01-19T09:06:36.000Z,16000.0
2023-01-19T09:07:36.000Z,16000.0
2023-01-19T09:08:37.000Z,16000.0
2023-01-19T09:09:36.000Z,16000.0
2023-01-19T09:10:36.000Z,16000.0
2023-01-19T09:11:37.000Z,16000.0
2023-01-19T09:12:36.000Z,15044.0
2023-01-19T09:13:37.000Z,15911.0
2023-01-19T09:14:36.000Z,16000.0
2023-01-19T09:15:36.000Z,16000.0
2023-01-19T09:16:37.000Z,15767.0
2023-01-19T09:17:36.000Z,15709.0
2023-01-19T09:18:37.000Z,16000.0
2023-01-19T09:19:36.000Z,16000.0
2023-01-19T09:20:36.000Z,16000.0
2023-01-19T09:21:37.000Z,16000.0
2023-01-19T09:22:36.000Z,15934.0
2023-01-19T09:23:36.000Z,13335.0
2023-01-19T09:24:37.000Z,12612.0
2023-01-19T09:25:36.000Z,12086.0
2023-01-19T09:26:37.000Z,12422.0
2023-01-19T09:27:36.000Z,12626.0
2023-01-19T09:28:36.000Z,12347.0
2023-01-19T09:29:37.000Z,13341.0
2023-01-19T09:30:36.000Z,13092.0
2023-01-19T09:31:37.000Z,12806.0
2023-01-19T09:32:36.000Z,13199.0
2023-01-19T09:33:36.000Z,13031.0
2023-01-19T09:34:37.000Z,13422.0
2023-01-19T09:35:36.000Z,13586.0
2023-01-19T09:36:36.000Z,13479.0
2023-01-19T09:37:37.000Z,12055.0
2023-01-19T09:38:36.000Z,11905.0
2023-01-19T09:39:37.000Z,12985.0
2023-01-19T09:40:36.000Z,13348.0
2023-01-19T09:41:36.000Z,13864.0
2023-01-19T09:42:37.000Z,13972.0
2023-01-19T09:43:36.000Z,14127.0
2023-01-19T09:44:37.000Z,14675.0
2023-01-19T09:45:36.000Z,13738.0
2023-01-19T09:46:36.000Z,12622.0
2023-01-19T09:47:36.000Z,13799.0
2023-01-19T09:48:37.000Z,14571.0
2023-01-19T09:49:36.000Z,15516.0
2023-01-19T09:50:37.000Z,16000.0
2023-01-19T09:51:36.000Z,16000.0
2023-01-19T09:52:36.000Z,16000.0
2023-01-19T09:53:37.000Z,16000.0
2023-01-19T09:54:36.000Z,16000.0
2023-01-19T09:55:37.000Z,16000.0
2023-01-19T09:56:36.000Z,16000.0
2023-01-19T09:57:36.000Z,16000.0
2023-01-19T09:58:37.000Z,16000.0
2023-01-19T09:59:36.000Z,16000.0
2023-01-19T10:00:36.000Z,16000.0
2023-01-19T10:01:37.000Z,16000.0
2023-01-19T10:02:36.000Z,16000.0
2023-01-19T10:03:37.000Z,16000.0
2023-01-19T10:04:36.000Z,16000.0
2023-01-19T10:05:36.000Z,16000.0
2023-01-19T10:06:37.000Z,16000.0
2023-01-19T10:07:36.000Z,16000.0
2023-01-19T10:08:37.000Z,16000.0
2023-01-19T10:09:36.000Z,16000.0
2023-01-19T10:10:36.000Z,16000.0
2023-01-19T10:11:37.000Z,15320.0
2023-01-19T10:12:36.000Z,16000.0
2023-01-19T10:13:36.000Z,13804.0
2023-01-19T10:14:37.000Z,14604.0
2023-01-19T10:15:36.000Z,14234.0
2023-01-19T10:16:37.000Z,14942.0
2023-01-19T10:17:36.000Z,14757.0
2023-01-19T10:18:36.000Z,15406.0
2023-01-19T10:19:37.000Z,15441.0
2023-01-19T10:20:36.000Z,16000.0
2023-01-19T10:21:36.000Z,15309.0
2023-01-19T10:22:36.000Z,15903.0
2023-01-19T10:23:36.000Z,16000.0
2023-01-19T10:24:37.000Z,16000.0
2023-01-19T10:25:36.000Z,16000.0
2023-01-19T10:26:36.000Z,16000.0
2023-01-19T10:27:37.000Z,16000.0
2023-01-19T10:28:36.000Z,16000.0
2023-01-19T10:29:37.000Z,16000.0
2023-01-19T10:30:36.000Z,15555.0
2023-01-19T10:31:36.000Z,16000.0
2023-01-19T10:32:37.000Z,16000.0
2023-01-19T10:33:36.000Z,16000.0
2023-01-19T10:34:37.000Z,16000.0
2023-01-19T10:35:36.000Z,16000.0
2023-01-19T10:36:36.000Z,16000.0
2023-01-19T10:37:37.000Z,16000.0
2023-01-19T10:38:36.000Z,16000.0
2023-01-19T10:39:36.000Z,16000.0
2023-01-19T10:40:37.000Z,16000.0
2023-01-19T10:41:36.000Z,16000.0
2023-01-19T10:42:37.000Z,16000.0
2023-01-19T10:43:36.000Z,16000.0
2023-01-19T10:44:36.000Z,16000.0
2023-01-19T10:45:37.000Z,16000.0
2023-01-19T10:46:36.000Z,16000.0
2023-01-19T10:47:36.000Z,16000.0
2023-01-19T10:48:37.000Z,16000.0
2023-01-19T10:49:36.000Z,16000.0
2023-01-19T10:50:37.000Z,16000.0
2023-01-19T10:51:36.000Z,16000.0
2023-01-19T10:52:36.000Z,16000.0
2023-01-19T10:53:37.000Z,16000.0
2023-01-19T10:54:36.000Z,16000.0
2023-01-19T10:55:37.000Z,16000.0
2023-01-19T10:56:36.000Z,16000.0
2023-01-19T10:57:36.000Z,16000.0
2023-01-19T10:58:37.000Z,16000.0
2023-01-19T10:59:36.000Z,16000.0
2023-01-19T11:00:36.000Z,16000.0
2023-01-19T11:01:37.000Z,16000.0
2023-01-19T11:02:36.000Z,16000.0
2023-01-19T11:03:37.000Z,16000.0
2023-01-19T11:04:36.000Z,16000.0
2023-01-19T11:05:36.000Z,16000.0
2023-01-19T11:06:37.000Z,16000.0
2023-01-19T11:07:36.000Z,16000.0
2023-01-19T11:08:36.000Z,16000.0
2023-01-19T11:09:37.000Z,16000.0
2023-01-19T11:10:36.000Z,16000.0
2023-01-19T11:11:37.000Z,16000.0
2023-01-19T11:12:36.000Z,16000.0
2023-01-19T11:13:36.000Z,16000.0
2023-01-19T11:14:37.000Z,16000.0
2023-01-19T11:15:36.000Z,16000.0
2023-01-19T11:16:37.000Z,16000.0
2023-01-19T11:17:36.000Z,16000.0
2023-01-19T11:18:36.000Z,16000.0
2023-01-19T11:19:37.000Z,16000.0
2023-01-19T11:20:36.000Z,16000.0
2023-01-19T11:21:36.000Z,16000.0
2023-01-19T11:22:36.000Z,16000.0
2023-01-19T11:23:36.000Z,16000.0
2023-01-19T11:24:37.000Z,16000.0
2023-01-19T11:25:36.000Z,16000.0
2023-01-19T11:26:36.000Z,16000.0
2023-01-19T11:27:37.000Z,16000.0
2023-01-19T11:28:36.000Z,16000.0
2023-01-19T11:29:37.000Z,16000.0
2023-01-19T11:30:36.000Z,16000.0
2023-01-19T11:31:36.000Z,16000.0
2023-01-19T11:32:37.000Z,16000.0
2023-01-19T11:33:36.000Z,16000.0
2023-01-19T11:34:36.000Z,16000.0
2023-01-19T11:35:37.000Z,16000.0
2023-01-19T11:36:36.000Z,16000.0
2023-01-19T11:37:37.000Z,16000.0
2023-01-19T11:38:36.000Z,16000.0
2023-01-19T11:39:36.000Z,16000.0
2023-01-19T11:40:37.000Z,16000.0
2023-01-19T11:41:36.000Z,16000.0
2023-01-19T11:42:37.000Z,16000.0
2023-01-19T11:43:36.000Z,16000.0
2023-01-19T11:44:36.000Z,16000.0
2023-01-19T11:45:37.000Z,16000.0
2023-01-19T11:46:36.000Z,16000.0
2023-01-19T11:47:36.000Z,16000.0
2023-01-19T11:48:37.000Z,16000.0
2023-01-19T11:49:36.000Z,16000.0
2023-01-19T11:50:36.000Z,16000.0
2023-01-19T11:51:37.000Z,16000.0
2023-01-19T11:52:36.000Z,16000.0
2023-01-19T11:53:37.000Z,16000.0
2023-01-19T11:54:36.000Z,16000.0
2023-01-19T11:55:36.000Z,16000.0
2023-01-19T11:56:37.000Z,16000.0
2023-01-19T11:57:36.000Z,16000.0
2023-01-19T11:58:36.000Z,16000.0
2023-01-19T11:59:37.000Z,16000.0
2023-01-19T12:00:36.000Z,16000.0
2023-01-19T12:01:37.000Z,16000.0
2023-01-19T12:02:36.000Z,16000.0
2023-01-19T12:03:36.000Z,16000.0
2023-01-19T12:04:37.000Z,16000.0
2023-01-19T12:05:36.000Z,16000.0
2023-01-19T12:06:37.000Z,16000.0
2023-01-19T12:07:36.000Z,16000.0
2023-01-19T12:08:36.000Z,16000.0
2023-01-19T12:09:37.000Z,16000.0
2023-01-19T12:10:36.000Z,16000.0